createdAt,value
2017-07-31T00:00:10.246Z,65.53
2017-07-31T00:00:50.827Z,66.11
2017-07-31T00:01:31.427Z,66.11
2017-07-31T00:02:11.992Z,65.92
2017-07-31T00:02:52.566Z,65.53
2017-07-31T00:03:33.137Z,65.43
2017-07-31T00:04:13.713Z,65.43
2017-07-31T00:04:54.322Z,65.53
2017-07-31T00:05:34.892Z,65.14
2017-07-31T00:06:15.481Z,65.14
2017-07-31T00:06:56.075Z,64.66
2017-07-31T00:07:36.670Z,64.08
2017-07-31T00:08:17.262Z,64.76
2017-07-31T00:08:57.838Z,64.56
2017-07-31T00:09:38.407Z,63.79
2017-07-31T00:10:19.069Z,63.89
2017-07-31T00:10:59.688Z,63.21
2017-07-31T00:11:40.319Z,63.11
2017-07-31T00:12:20.933Z,63.69
2017-07-31T00:13:01.528Z,63.4
2017-07-31T00:13:42.145Z,62.89
2017-07-31T00:14:22.748Z,63.02
2017-07-31T00:15:03.337Z,62.82
2017-07-31T00:15:43.906Z,63.02
2017-07-31T00:16:24.534Z,62.82
2017-07-31T00:17:05.142Z,62.82
2017-07-31T00:17:45.740Z,62.34
2017-07-31T00:18:26.318Z,62.34
2017-07-31T00:19:06.890Z,62.44
2017-07-31T00:19:47.478Z,62.63
2017-07-31T00:20:28.056Z,62.63
2017-07-31T00:21:08.643Z,62.63
2017-07-31T00:21:49.220Z,61.66
2017-07-31T00:22:29.783Z,61.86
2017-07-31T00:23:10.380Z,61.47
2017-07-31T00:23:50.971Z,62.44
2017-07-31T00:24:31.539Z,62.24
2017-07-31T00:25:12.113Z,61.66
2017-07-31T00:25:52.736Z,61.76
2017-07-31T00:26:33.310Z,61.66
2017-07-31T00:27:13.942Z,61.86
2017-07-31T00:27:54.525Z,62.24
2017-07-31T00:28:35.109Z,61.66
2017-07-31T00:29:15.682Z,61.76
2017-07-31T00:29:56.260Z,62.24
2017-07-31T00:30:36.834Z,62.24
2017-07-31T00:31:17.401Z,62.53
2017-07-31T00:31:58.027Z,62.24
2017-07-31T00:32:38.611Z,62.24
2017-07-31T00:33:19.203Z,61.76
2017-07-31T00:33:59.758Z,61.66
2017-07-31T00:34:40.335Z,61.76
2017-07-31T00:35:20.901Z,61.76
2017-07-31T00:36:01.481Z,61.95
2017-07-31T00:36:42.067Z,62.05
2017-07-31T00:37:22.645Z,61.86
2017-07-31T00:38:07.325Z,62.44
2017-07-31T00:38:47.899Z,61.73
2017-07-31T00:39:28.489Z,61.76
2017-07-31T00:40:09.053Z,61.57
2017-07-31T00:40:49.639Z,61.66
2017-07-31T00:41:30.258Z,61.92
2017-07-31T00:42:10.830Z,62.44
2017-07-31T00:42:51.407Z,62.21
2017-07-31T00:43:31.979Z,62.24
2017-07-31T00:44:12.541Z,62.12
2017-07-31T00:44:53.123Z,62.12
2017-07-31T00:45:33.705Z,62.4
2017-07-31T00:46:14.291Z,62.44
2017-07-31T00:46:54.867Z,62.53
2017-07-31T00:47:35.451Z,62.02
2017-07-31T00:48:16.009Z,62.31
2017-07-31T00:48:56.606Z,62.4
2017-07-31T00:49:37.175Z,62.4
2017-07-31T00:50:17.797Z,62.21
2017-07-31T00:50:58.361Z,62.5
2017-07-31T00:51:38.935Z,62.79
2017-07-31T00:52:19.501Z,62.89
2017-07-31T00:53:00.081Z,62.79
2017-07-31T00:53:40.645Z,62.5
2017-07-31T00:54:21.205Z,62.79
2017-07-31T00:55:01.829Z,62.89
2017-07-31T00:55:42.414Z,62.79
2017-07-31T00:56:22.980Z,62.89
2017-07-31T00:57:03.556Z,62.89
2017-07-31T00:57:44.144Z,63.47
2017-07-31T00:58:24.732Z,62.89
2017-07-31T00:59:05.318Z,63.02
2017-07-31T00:59:45.888Z,62.92
2017-07-31T01:00:26.461Z,63.28
2017-07-31T01:01:07.048Z,63.56
2017-07-31T01:01:47.668Z,63.21
2017-07-31T01:02:28.272Z,63.89
2017-07-31T01:03:08.863Z,63.47
2017-07-31T01:03:49.427Z,63.21
2017-07-31T01:04:30.002Z,62.89
2017-07-31T01:05:10.574Z,62.98
2017-07-31T01:05:51.147Z,63.56
2017-07-31T01:06:31.734Z,63.28
2017-07-31T01:07:12.327Z,63.95
2017-07-31T01:07:52.917Z,63.56
2017-07-31T01:08:33.501Z,63.47
2017-07-31T01:09:14.095Z,63.66
2017-07-31T01:09:54.710Z,63.56
2017-07-31T01:10:35.291Z,63.18
2017-07-31T01:11:15.891Z,62.98
2017-07-31T01:11:56.470Z,63.08
2017-07-31T01:12:37.057Z,63.6
2017-07-31T01:13:17.630Z,63.28
2017-07-31T01:13:58.196Z,63.4
2017-07-31T01:14:38.777Z,63.28
2017-07-31T01:15:19.354Z,62.6
2017-07-31T01:15:59.920Z,62.44
2017-07-31T01:16:40.500Z,62.79
2017-07-31T01:17:21.074Z,62.6
2017-07-31T01:18:01.658Z,62.98
2017-07-31T01:18:42.252Z,63.47
2017-07-31T01:19:22.837Z,63.28
2017-07-31T01:20:03.423Z,63.56
2017-07-31T01:20:44.050Z,63.95
2017-07-31T01:21:24.619Z,63.76
2017-07-31T01:22:05.192Z,63.66
2017-07-31T01:22:45.797Z,63.66
2017-07-31T01:23:26.387Z,63.37
2017-07-31T01:24:07.016Z,63.56
2017-07-31T01:24:47.682Z,63.47
2017-07-31T01:25:28.370Z,63.08
2017-07-31T01:26:08.977Z,63.95
2017-07-31T01:26:49.579Z,63.95
2017-07-31T01:27:30.146Z,64.14
2017-07-31T01:28:11.365Z,63.18
2017-07-31T01:28:53.047Z,63.66
2017-07-31T01:29:33.680Z,63.95
2017-07-31T01:30:15.010Z,63.95
2017-07-31T01:30:55.711Z,63.76
2017-07-31T01:31:36.808Z,63.37
2017-07-31T01:32:18.538Z,63.76
2017-07-31T01:33:00.214Z,63.76
2017-07-31T01:33:40.983Z,63.76
2017-07-31T01:34:21.767Z,63.76
2017-07-31T01:35:03.254Z,63.95
2017-07-31T01:35:45.412Z,64.53
2017-07-31T01:36:27.101Z,64.82
2017-07-31T01:37:07.664Z,64.43
2017-07-31T01:37:48.641Z,63.95
2017-07-31T01:38:29.469Z,64.34
2017-07-31T01:39:10.973Z,64.14
2017-07-31T01:39:52.565Z,63.76
2017-07-31T01:40:34.585Z,63.85
2017-07-31T01:41:14.998Z,64.34
2017-07-31T01:41:55.602Z,64.34
2017-07-31T01:42:36.166Z,64.53
2017-07-31T01:43:16.771Z,64.53
2017-07-31T01:43:57.417Z,64.53
2017-07-31T01:44:38.014Z,64.24
2017-07-31T01:45:18.612Z,63.18
2017-07-31T01:45:59.214Z,63.37
2017-07-31T01:46:39.793Z,63.18
2017-07-31T01:47:20.373Z,63.85
2017-07-31T01:48:00.961Z,63.47
2017-07-31T01:48:41.579Z,63.95
2017-07-31T01:49:22.226Z,63.76
2017-07-31T01:50:03.487Z,64.82
2017-07-31T01:50:45.480Z,64.63
2017-07-31T01:51:26.692Z,64.53
2017-07-31T01:52:07.240Z,64.82
2017-07-31T01:52:48.377Z,64.82
2017-07-31T01:53:29.739Z,64.43
2017-07-31T01:54:10.303Z,64.53
2017-07-31T01:54:51.379Z,64.82
2017-07-31T01:55:33.390Z,65.01
2017-07-31T01:56:14.300Z,64.72
2017-07-31T01:56:55.177Z,64.63
2017-07-31T01:57:35.886Z,64.82
2017-07-31T01:58:16.982Z,64.92
2017-07-31T01:58:57.996Z,64.92
2017-07-31T01:59:38.902Z,65.01
2017-07-31T02:00:19.738Z,65.4
2017-07-31T02:01:00.752Z,65.4
2017-07-31T02:01:41.096Z,65.4
2017-07-31T02:02:22.237Z,65.4
2017-07-31T02:03:03.264Z,64.82
2017-07-31T02:03:44.068Z,64.43
2017-07-31T02:04:24.937Z,64.53
2017-07-31T02:05:05.719Z,64.82
2017-07-31T02:05:46.308Z,65.01
2017-07-31T02:06:26.872Z,64.63
2017-07-31T02:07:07.490Z,64.72
2017-07-31T02:07:48.073Z,65.01
2017-07-31T02:08:28.702Z,64.92
2017-07-31T02:09:09.302Z,64.34
2017-07-31T02:09:49.882Z,63.95
2017-07-31T02:10:30.509Z,63.95
2017-07-31T02:11:11.097Z,64.24
2017-07-31T02:11:51.658Z,64.31
2017-07-31T02:12:32.264Z,64.63
2017-07-31T02:13:12.845Z,64.92
2017-07-31T02:13:53.417Z,64.53
2017-07-31T02:14:33.987Z,64.53
2017-07-31T02:15:14.588Z,64.92
2017-07-31T02:15:55.181Z,64.92
2017-07-31T02:16:35.745Z,64.92
2017-07-31T02:17:16.361Z,65.01
2017-07-31T02:17:56.938Z,64.72
2017-07-31T02:18:37.509Z,64.63
2017-07-31T02:19:18.111Z,64.79
2017-07-31T02:19:58.668Z,64.79
2017-07-31T02:20:39.237Z,64.5
2017-07-31T02:21:19.846Z,64.72
2017-07-31T02:22:00.451Z,64.92
2017-07-31T02:22:41.080Z,65.17
2017-07-31T02:23:21.657Z,65.27
2017-07-31T02:24:02.294Z,65.37
2017-07-31T02:24:42.858Z,65.56
2017-07-31T02:25:23.443Z,65.2
2017-07-31T02:26:04.038Z,66.33
2017-07-31T02:26:44.602Z,66.63
2017-07-31T02:27:25.185Z,66.63
2017-07-31T02:28:05.779Z,66.33
2017-07-31T02:28:46.372Z,66.24
2017-07-31T02:29:26.958Z,65.95
2017-07-31T02:30:07.538Z,65.95
2017-07-31T02:30:48.121Z,66.33
2017-07-31T02:31:28.693Z,66.33
2017-07-31T02:32:09.286Z,66.82
2017-07-31T02:32:49.865Z,66.63
2017-07-31T02:33:30.527Z,65.75
2017-07-31T02:34:11.099Z,66.24
2017-07-31T02:34:51.678Z,66.72
2017-07-31T02:35:32.259Z,66.43
2017-07-31T02:36:12.832Z,66.43
2017-07-31T02:36:53.436Z,65.95
2017-07-31T02:37:34.058Z,65.75
2017-07-31T02:38:14.630Z,66.43
2017-07-31T02:38:55.219Z,66.63
2017-07-31T02:39:35.792Z,66.63
2017-07-31T02:40:16.427Z,66.24
2017-07-31T02:40:56.998Z,65.85
2017-07-31T02:41:37.590Z,65.95
2017-07-31T02:42:18.164Z,65.85
2017-07-31T02:42:58.764Z,66.24
2017-07-31T02:43:39.352Z,66.43
2017-07-31T02:44:19.909Z,66.33
2017-07-31T02:45:00.492Z,66.24
2017-07-31T02:45:41.125Z,66.33
2017-07-31T02:46:21.742Z,66.24
2017-07-31T02:47:02.526Z,66.05
2017-07-31T02:47:44.172Z,66.24
2017-07-31T02:48:25.180Z,66.33
2017-07-31T02:49:06.131Z,65.66
2017-07-31T02:49:47.908Z,65.75
2017-07-31T02:50:28.785Z,65.56
2017-07-31T02:51:09.639Z,65.17
2017-07-31T02:51:50.529Z,65.56
2017-07-31T02:52:31.150Z,65.85
2017-07-31T02:53:11.732Z,65.95
2017-07-31T02:53:52.350Z,66.53
2017-07-31T02:54:32.930Z,66.53
2017-07-31T02:55:13.572Z,66.82
2017-07-31T02:55:54.170Z,66.91
2017-07-31T02:56:34.774Z,67.01
2017-07-31T02:57:15.358Z,66.91
2017-07-31T02:57:55.931Z,66.53
2017-07-31T02:58:36.506Z,67.01
2017-07-31T02:59:17.093Z,66.88
2017-07-31T02:59:57.685Z,66.91
2017-07-31T03:00:38.286Z,66.82
2017-07-31T03:01:18.872Z,66.97
2017-07-31T03:01:59.446Z,67.11
2017-07-31T03:02:40.023Z,67.3
2017-07-31T03:03:20.623Z,67.17
2017-07-31T03:04:01.190Z,67.3
2017-07-31T03:04:41.772Z,67.4
2017-07-31T03:05:22.368Z,66.91
2017-07-31T03:06:02.960Z,66.97
2017-07-31T03:06:43.600Z,66.4
2017-07-31T03:07:24.213Z,66.72
2017-07-31T03:08:04.785Z,66.3
2017-07-31T03:08:45.372Z,67.11
2017-07-31T03:09:25.944Z,67.07
2017-07-31T03:10:06.539Z,67.01
2017-07-31T03:10:47.111Z,67.01
2017-07-31T03:11:27.708Z,66.59
2017-07-31T03:12:08.277Z,67.07
2017-07-31T03:12:48.963Z,66.97
2017-07-31T03:13:29.554Z,66.97
2017-07-31T03:14:10.127Z,67.01
2017-07-31T03:14:50.736Z,66.49
2017-07-31T03:15:31.318Z,66.97
2017-07-31T03:16:11.896Z,66.49
2017-07-31T03:16:52.469Z,66.69
2017-07-31T03:17:33.412Z,66.78
2017-07-31T03:18:14.649Z,67.07
2017-07-31T03:18:55.918Z,66.59
2017-07-31T03:19:36.993Z,66.88
2017-07-31T03:20:18.093Z,67.46
2017-07-31T03:20:58.690Z,67.36
2017-07-31T03:21:39.271Z,67.36
2017-07-31T03:22:19.854Z,68.13
2017-07-31T03:23:00.432Z,68.33
2017-07-31T03:23:41.022Z,68.52
2017-07-31T03:24:21.619Z,68.33
2017-07-31T03:25:02.241Z,68.43
2017-07-31T03:25:42.787Z,68.13
2017-07-31T03:26:23.355Z,68.23
2017-07-31T03:27:03.940Z,68.23
2017-07-31T03:27:44.546Z,67.55
2017-07-31T03:28:25.119Z,67.27
2017-07-31T03:29:05.704Z,66.97
2017-07-31T03:29:46.286Z,67.17
2017-07-31T03:30:26.868Z,66.97
2017-07-31T03:31:07.511Z,67.46
2017-07-31T03:31:48.066Z,66.97
2017-07-31T03:32:28.668Z,67.46
2017-07-31T03:33:09.280Z,67.75
2017-07-31T03:33:49.855Z,67.46
2017-07-31T03:34:30.462Z,67.36
2017-07-31T03:35:11.036Z,67.55
2017-07-31T03:35:51.610Z,67.55
2017-07-31T03:36:32.183Z,67.75
2017-07-31T03:37:12.766Z,67.85
2017-07-31T03:37:53.339Z,67.85
2017-07-31T03:38:33.920Z,67.75
2017-07-31T03:39:14.475Z,68.23
2017-07-31T03:39:55.057Z,67.75
2017-07-31T03:40:35.637Z,67.85
2017-07-31T03:41:16.205Z,67.36
2017-07-31T03:41:56.785Z,67.55
2017-07-31T03:42:37.384Z,67.55
2017-07-31T03:43:17.992Z,67.94
2017-07-31T03:43:58.561Z,68.13
2017-07-31T03:44:39.194Z,68.52
2017-07-31T03:45:19.784Z,68.13
2017-07-31T03:46:00.401Z,68.23
2017-07-31T03:46:41.010Z,68.04
2017-07-31T03:47:21.600Z,68.52
2017-07-31T03:48:02.189Z,68.52
2017-07-31T03:48:42.796Z,68.62
2017-07-31T03:49:23.380Z,68.52
2017-07-31T03:50:03.958Z,68.71
2017-07-31T03:50:44.522Z,68.81
2017-07-31T03:51:25.091Z,68.52
2017-07-31T03:52:05.709Z,68.81
2017-07-31T03:52:46.260Z,68.62
2017-07-31T03:53:26.854Z,68.81
2017-07-31T03:54:07.441Z,69.1
2017-07-31T03:54:48.013Z,69.39
2017-07-31T03:55:28.609Z,69.39
2017-07-31T03:56:09.217Z,69.68
2017-07-31T03:56:49.809Z,69.87
2017-07-31T03:57:30.437Z,69.87
2017-07-31T03:58:10.992Z,69.78
2017-07-31T03:58:52.270Z,69.68
2017-07-31T03:59:33.389Z,69.55
2017-07-31T04:00:17.319Z,69.68
2017-07-31T04:00:58.333Z,69.78
2017-07-31T04:01:40.384Z,69.74
2017-07-31T04:02:21.452Z,69.2
2017-07-31T04:03:02.023Z,69.26
2017-07-31T04:03:43.135Z,69.49
2017-07-31T04:04:23.932Z,69.49
2017-07-31T04:05:04.868Z,69.49
2017-07-31T04:05:46.378Z,69.58
2017-07-31T04:06:27.801Z,69.45
2017-07-31T04:07:08.701Z,69.39
2017-07-31T04:07:49.800Z,69.1
2017-07-31T04:08:31.397Z,69.26
2017-07-31T04:09:12.766Z,69.84
2017-07-31T04:09:54.011Z,69.49
2017-07-31T04:10:34.913Z,69.2
2017-07-31T04:11:15.462Z,69.16
2017-07-31T04:11:56.637Z,69.2
2017-07-31T04:12:37.231Z,69.2
2017-07-31T04:13:17.820Z,69.35
2017-07-31T04:13:58.883Z,69.35
2017-07-31T04:14:39.887Z,68.91
2017-07-31T04:15:20.738Z,69
2017-07-31T04:16:01.768Z,69.1
2017-07-31T04:16:42.991Z,69.35
2017-07-31T04:17:23.574Z,69.1
2017-07-31T04:18:04.742Z,69.84
2017-07-31T04:18:45.522Z,69.68
2017-07-31T04:19:26.097Z,69.68
2017-07-31T04:20:06.669Z,69.68
2017-07-31T04:20:47.290Z,69.49
2017-07-31T04:21:27.894Z,69.45
2017-07-31T04:22:08.489Z,69.58
2017-07-31T04:22:49.098Z,69.78
2017-07-31T04:23:29.676Z,69.2
2017-07-31T04:24:10.262Z,69.49
2017-07-31T04:24:50.866Z,69.1
2017-07-31T04:25:31.435Z,68.91
2017-07-31T04:26:12.053Z,69.29
2017-07-31T04:26:52.658Z,68.71
2017-07-31T04:27:33.298Z,69.49
2017-07-31T04:28:13.885Z,69
2017-07-31T04:28:54.471Z,69.29
2017-07-31T04:29:35.071Z,68.91
2017-07-31T04:30:15.649Z,68.81
2017-07-31T04:30:56.233Z,69.2
2017-07-31T04:31:36.834Z,68.81
2017-07-31T04:32:17.437Z,68.81
2017-07-31T04:32:58.010Z,69.2
2017-07-31T04:33:38.595Z,69.1
2017-07-31T04:34:19.238Z,69.1
2017-07-31T04:34:59.793Z,68.91
2017-07-31T04:35:40.394Z,69.39
2017-07-31T04:36:20.994Z,69.78
2017-07-31T04:37:01.597Z,69.49
2017-07-31T04:37:42.200Z,69
2017-07-31T04:38:22.787Z,68.91
2017-07-31T04:39:03.357Z,69.2
2017-07-31T04:39:43.916Z,68.91
2017-07-31T04:40:24.505Z,69.1
2017-07-31T04:41:05.084Z,69.2
2017-07-31T04:41:45.661Z,68.81
2017-07-31T04:42:26.258Z,68.81
2017-07-31T04:43:06.849Z,68.91
2017-07-31T04:43:47.438Z,68.62
2017-07-31T04:44:28.014Z,68.71
2017-07-31T04:45:08.600Z,68.71
2017-07-31T04:45:49.162Z,68.81
2017-07-31T04:46:29.743Z,68.81
2017-07-31T04:47:10.317Z,68.81
2017-07-31T04:47:50.904Z,68.71
2017-07-31T04:48:31.626Z,68.62
2017-07-31T04:49:12.212Z,68.62
2017-07-31T04:49:52.831Z,68.52
2017-07-31T04:50:33.417Z,68.33
2017-07-31T04:51:14.348Z,68.81
2017-07-31T04:51:54.938Z,69
2017-07-31T04:52:35.529Z,68.91
2017-07-31T04:53:16.125Z,68.91
2017-07-31T04:53:56.735Z,69.39
2017-07-31T04:54:37.328Z,69.39
2017-07-31T04:55:17.931Z,69.29
2017-07-31T04:55:58.518Z,69.68
2017-07-31T04:56:39.137Z,69.39
2017-07-31T04:57:19.725Z,69.39
2017-07-31T04:58:00.319Z,69.78
2017-07-31T04:58:40.899Z,69.58
2017-07-31T04:59:21.510Z,68.94
2017-07-31T05:00:02.080Z,69.13
2017-07-31T05:00:42.679Z,69.42
2017-07-31T05:01:23.269Z,69
2017-07-31T05:02:03.861Z,69.49
2017-07-31T05:02:44.650Z,69.58
2017-07-31T05:03:25.561Z,68.91
2017-07-31T05:04:06.701Z,69.1
2017-07-31T05:04:47.292Z,69.58
2017-07-31T05:05:27.871Z,69.58
2017-07-31T05:06:08.455Z,69.68
2017-07-31T05:06:49.054Z,69.87
2017-07-31T05:07:29.624Z,69.71
2017-07-31T05:08:10.226Z,69.68
2017-07-31T05:08:50.792Z,69.68
2017-07-31T05:09:31.383Z,70.45
2017-07-31T05:10:11.970Z,69.87
2017-07-31T05:10:52.643Z,69.49
2017-07-31T05:11:33.297Z,70.58
2017-07-31T05:12:13.887Z,69.71
2017-07-31T05:12:54.469Z,69.39
2017-07-31T05:13:35.075Z,69.87
2017-07-31T05:14:15.660Z,69.81
2017-07-31T05:14:56.250Z,69.81
2017-07-31T05:15:36.827Z,69.78
2017-07-31T05:16:17.425Z,69.87
2017-07-31T05:16:58.008Z,69.78
2017-07-31T05:17:38.570Z,69.49
2017-07-31T05:18:19.142Z,69.87
2017-07-31T05:18:59.725Z,70.1
2017-07-31T05:19:40.306Z,69.78
2017-07-31T05:20:20.874Z,69.87
2017-07-31T05:21:01.451Z,70.36
2017-07-31T05:21:42.013Z,70.2
2017-07-31T05:22:22.602Z,70.16
2017-07-31T05:23:03.193Z,70.26
2017-07-31T05:23:43.799Z,70.29
2017-07-31T05:24:24.387Z,70.06
2017-07-31T05:25:05.005Z,70.16
2017-07-31T05:25:45.578Z,70.1
2017-07-31T05:26:26.145Z,70.06
2017-07-31T05:27:06.785Z,69.49
2017-07-31T05:27:47.363Z,69.78
2017-07-31T05:28:27.949Z,69.78
2017-07-31T05:29:08.535Z,69.87
2017-07-31T05:29:49.102Z,70.45
2017-07-31T05:30:29.684Z,70.54
2017-07-31T05:31:10.263Z,70.45
2017-07-31T05:31:50.860Z,70.45
2017-07-31T05:32:31.432Z,70.36
2017-07-31T05:33:12.012Z,70.16
2017-07-31T05:33:52.578Z,70.36
2017-07-31T05:34:33.146Z,70.54
2017-07-31T05:35:13.728Z,70.64
2017-07-31T05:35:54.315Z,70.36
2017-07-31T05:36:34.895Z,70.36
2017-07-31T05:37:15.470Z,70.29
2017-07-31T05:37:56.067Z,69.78
2017-07-31T05:38:36.662Z,69.68
2017-07-31T05:39:17.263Z,69.68
2017-07-31T05:39:57.866Z,69.58
2017-07-31T05:40:38.541Z,69.78
2017-07-31T05:41:19.109Z,69.49
2017-07-31T05:41:59.666Z,69.68
2017-07-31T05:42:40.267Z,70.26
2017-07-31T05:43:20.852Z,70.36
2017-07-31T05:44:01.424Z,70.36
2017-07-31T05:44:42.002Z,70.36
2017-07-31T05:45:22.610Z,69.97
2017-07-31T05:46:03.276Z,70.36
2017-07-31T05:46:43.882Z,70.39
2017-07-31T05:47:24.457Z,70.39
2017-07-31T05:48:05.053Z,70.26
2017-07-31T05:48:45.632Z,70.39
2017-07-31T05:49:26.194Z,69.81
2017-07-31T05:50:06.802Z,69.9
2017-07-31T05:50:47.370Z,70.1
2017-07-31T05:51:27.966Z,69.71
2017-07-31T05:52:08.582Z,69.62
2017-07-31T05:52:49.159Z,69.52
2017-07-31T05:53:29.744Z,69.71
2017-07-31T05:54:10.325Z,69.13
2017-07-31T05:54:50.914Z,69.71
2017-07-31T05:55:31.501Z,69.62
2017-07-31T05:56:12.065Z,69.62
2017-07-31T05:56:52.641Z,69.42
2017-07-31T05:57:33.220Z,69.52
2017-07-31T05:58:13.790Z,70.39
2017-07-31T05:58:54.369Z,70
2017-07-31T05:59:34.973Z,69.71
2017-07-31T06:00:15.541Z,69.42
2017-07-31T06:00:56.111Z,69.62
2017-07-31T06:01:36.708Z,69.71
2017-07-31T06:02:17.284Z,69.62
2017-07-31T06:02:57.876Z,69.62
2017-07-31T06:03:38.560Z,69.62
2017-07-31T06:04:19.151Z,69.32
2017-07-31T06:04:59.736Z,69.23
2017-07-31T06:05:40.355Z,69.81
2017-07-31T06:06:20.974Z,70.52
2017-07-31T06:07:01.627Z,69.84
2017-07-31T06:07:42.168Z,68.98
2017-07-31T06:08:22.763Z,68.98
2017-07-31T06:09:03.405Z,68.68
2017-07-31T06:09:43.927Z,68.1
2017-07-31T06:10:24.500Z,68.59
2017-07-31T06:11:05.122Z,68.88
2017-07-31T06:11:45.701Z,69.74
2017-07-31T06:12:26.298Z,69.74
2017-07-31T06:13:07.208Z,69.56
2017-07-31T06:13:47.944Z,69.59
2017-07-31T06:14:28.565Z,69.68
2017-07-31T06:15:09.129Z,69.01
2017-07-31T06:15:49.711Z,68.56
2017-07-31T06:16:30.317Z,68.17
2017-07-31T06:17:10.903Z,67.88
2017-07-31T06:17:51.482Z,67.53
2017-07-31T06:18:32.144Z,66.75
2017-07-31T06:19:12.697Z,66.56
2017-07-31T06:19:53.280Z,65.72
2017-07-31T06:20:33.852Z,65.14
2017-07-31T06:21:14.447Z,65.37
2017-07-31T06:21:55.023Z,64.98
2017-07-31T06:22:35.714Z,65.47
2017-07-31T06:23:16.289Z,64.69
2017-07-31T06:23:56.875Z,64.4
2017-07-31T06:24:37.471Z,63.95
2017-07-31T06:25:18.084Z,64.14
2017-07-31T06:25:58.674Z,63.65
2017-07-31T06:26:39.252Z,62.79
2017-07-31T06:27:19.861Z,61.82
2017-07-31T06:28:00.468Z,62.52
2017-07-31T06:28:41.062Z,62.4
2017-07-31T06:29:21.657Z,63.01
2017-07-31T06:30:02.272Z,61.94
2017-07-31T06:30:42.853Z,61.36
2017-07-31T06:31:23.425Z,62.23
2017-07-31T06:32:04.004Z,61.26
2017-07-31T06:32:44.625Z,61.75
2017-07-31T06:33:25.217Z,61.36
2017-07-31T06:34:05.967Z,61.36
2017-07-31T06:34:46.569Z,60.97
2017-07-31T06:35:27.133Z,60.32
2017-07-31T06:36:07.727Z,60.61
2017-07-31T06:36:48.391Z,60.32
2017-07-31T06:37:28.994Z,60.32
2017-07-31T06:38:09.561Z,59.67
2017-07-31T06:38:50.156Z,59.48
2017-07-31T06:39:30.745Z,59.87
2017-07-31T06:40:11.348Z,58.9
2017-07-31T06:40:51.926Z,59
2017-07-31T06:41:32.522Z,58.73
2017-07-31T06:42:13.087Z,58.05
2017-07-31T06:42:53.670Z,57.76
2017-07-31T06:43:34.308Z,57.6
2017-07-31T06:44:14.914Z,57.21
2017-07-31T06:44:55.600Z,56.92
2017-07-31T06:45:36.196Z,56.62
2017-07-31T06:46:16.765Z,56.34
2017-07-31T06:46:57.355Z,56.75
2017-07-31T06:47:37.945Z,55.98
2017-07-31T06:48:18.530Z,55.39
2017-07-31T06:48:59.117Z,55.19
2017-07-31T06:49:39.716Z,55.41
2017-07-31T06:50:20.278Z,54.15
2017-07-31T06:51:00.866Z,53.96
2017-07-31T06:51:41.454Z,53.96
2017-07-31T06:52:22.035Z,53.18
2017-07-31T06:53:02.644Z,52.5
2017-07-31T06:53:43.222Z,52.11
2017-07-31T06:54:23.813Z,53.08
2017-07-31T06:55:04.418Z,53.96
2017-07-31T06:55:44.983Z,54.05
2017-07-31T06:56:25.588Z,53.96
2017-07-31T06:57:06.181Z,54.25
2017-07-31T06:57:46.769Z,53.96
2017-07-31T06:58:27.386Z,53.96
2017-07-31T06:59:08.022Z,54.18
2017-07-31T06:59:48.625Z,53.89
2017-07-31T07:00:29.210Z,53.69
2017-07-31T07:01:09.826Z,53.2
2017-07-31T07:01:50.442Z,53.23
2017-07-31T07:02:31.053Z,52.72
2017-07-31T07:03:11.644Z,52.94
2017-07-31T07:03:52.269Z,53.14
2017-07-31T07:04:32.852Z,51.97
2017-07-31T07:05:13.467Z,51.97
2017-07-31T07:05:54.063Z,52.06
2017-07-31T07:06:34.639Z,51.58
2017-07-31T07:07:15.231Z,51.77
2017-07-31T07:07:55.800Z,51.09
2017-07-31T07:08:36.431Z,50.99
2017-07-31T07:09:17.051Z,51.48
2017-07-31T07:09:57.636Z,52.36
2017-07-31T07:10:38.216Z,52.19
2017-07-31T07:11:18.797Z,51.9
2017-07-31T07:11:59.384Z,50.63
2017-07-31T07:12:39.978Z,50.92
2017-07-31T07:13:20.575Z,51.12
2017-07-31T07:14:01.177Z,51.02
2017-07-31T07:14:41.757Z,51.21
2017-07-31T07:15:22.339Z,51.12
2017-07-31T07:16:02.938Z,51.41
2017-07-31T07:16:43.533Z,50.92
2017-07-31T07:17:24.129Z,51.21
2017-07-31T07:18:04.716Z,51.21
2017-07-31T07:18:45.300Z,50.85
2017-07-31T07:19:25.933Z,50.95
2017-07-31T07:20:06.582Z,50.95
2017-07-31T07:20:47.261Z,51.14
2017-07-31T07:21:27.896Z,50.75
2017-07-31T07:22:08.539Z,51.14
2017-07-31T07:22:49.147Z,50.56
2017-07-31T07:23:29.737Z,50.26
2017-07-31T07:24:10.365Z,50.16
2017-07-31T07:24:50.959Z,50.09
2017-07-31T07:25:31.552Z,49.9
2017-07-31T07:26:12.185Z,50.09
2017-07-31T07:26:52.800Z,49.61
2017-07-31T07:27:33.455Z,49.41
2017-07-31T07:28:14.076Z,49.8
2017-07-31T07:28:54.664Z,48.34
2017-07-31T07:29:35.277Z,48.14
2017-07-31T07:30:15.867Z,48.73
2017-07-31T07:30:56.474Z,48.34
2017-07-31T07:31:37.089Z,47.75
2017-07-31T07:32:17.685Z,48.83
2017-07-31T07:32:58.261Z,49.12
2017-07-31T07:33:38.838Z,48.73
2017-07-31T07:34:19.435Z,48.24
2017-07-31T07:35:00.032Z,48.93
2017-07-31T07:35:40.656Z,49.71
2017-07-31T07:36:21.264Z,49.32
2017-07-31T07:37:01.860Z,48.63
2017-07-31T07:37:42.448Z,48.93
2017-07-31T07:38:23.053Z,48.66
2017-07-31T07:39:03.636Z,48.27
2017-07-31T07:39:44.228Z,47.58
2017-07-31T07:40:24.814Z,47.97
2017-07-31T07:41:05.387Z,46.31
2017-07-31T07:41:45.971Z,46.7
2017-07-31T07:42:26.566Z,47.19
2017-07-31T07:43:07.150Z,47.68
2017-07-31T07:43:47.745Z,48.46
2017-07-31T07:44:28.345Z,48.46
2017-07-31T07:45:08.978Z,48.07
2017-07-31T07:45:49.589Z,47.78
2017-07-31T07:46:30.204Z,47.49
2017-07-31T07:47:10.796Z,47.58
2017-07-31T07:47:51.396Z,47.88
2017-07-31T07:48:31.993Z,48.46
2017-07-31T07:49:12.580Z,47.29
2017-07-31T07:49:53.154Z,45.83
2017-07-31T07:50:33.763Z,46.12
2017-07-31T07:51:14.355Z,46.02
2017-07-31T07:51:54.969Z,46.51
2017-07-31T07:52:35.644Z,47.78
2017-07-31T07:53:16.246Z,47.68
2017-07-31T07:53:56.832Z,47.58
2017-07-31T07:54:37.432Z,47.78
2017-07-31T07:55:18.027Z,46.41
2017-07-31T07:55:58.635Z,47.68
2017-07-31T07:56:39.225Z,48.44
2017-07-31T07:57:19.829Z,47.58
2017-07-31T07:58:00.414Z,47.56
2017-07-31T07:58:41.036Z,48.05
2017-07-31T07:59:21.607Z,48.46
2017-07-31T08:00:02.195Z,47.97
2017-07-31T08:00:42.798Z,46.59
2017-07-31T08:01:23.400Z,47.27
2017-07-31T08:02:04.026Z,48.63
2017-07-31T08:02:44.638Z,48.14
2017-07-31T08:03:25.248Z,47.36
2017-07-31T08:04:05.839Z,47.46
2017-07-31T08:04:46.450Z,48.83
2017-07-31T08:05:27.024Z,48.93
2017-07-31T08:06:07.628Z,48.05
2017-07-31T08:06:48.223Z,46.97
2017-07-31T08:07:28.842Z,49.22
2017-07-31T08:08:09.427Z,49.71
2017-07-31T08:08:50.009Z,49.02
2017-07-31T08:09:30.605Z,48.93
2017-07-31T08:10:11.204Z,47.07
2017-07-31T08:10:51.816Z,48.34
2017-07-31T08:11:32.416Z,48.83
2017-07-31T08:12:13.001Z,48.83
2017-07-31T08:12:53.627Z,49.22
2017-07-31T08:13:34.226Z,49.12
2017-07-31T08:14:14.791Z,48.63
2017-07-31T08:14:55.378Z,48.93
2017-07-31T08:15:35.981Z,48.83
2017-07-31T08:16:16.567Z,48.63
2017-07-31T08:16:57.158Z,48.24
2017-07-31T08:17:37.768Z,48.93
2017-07-31T08:18:18.343Z,47.56
2017-07-31T08:18:58.943Z,48.44
2017-07-31T08:19:39.526Z,48.83
2017-07-31T08:20:20.114Z,48.73
2017-07-31T08:21:00.689Z,48.93
2017-07-31T08:21:41.299Z,48.93
2017-07-31T08:22:21.899Z,49.8
2017-07-31T08:23:02.484Z,48.36
2017-07-31T08:23:43.122Z,47.29
2017-07-31T08:24:23.760Z,48.44
2017-07-31T08:25:04.347Z,48.36
2017-07-31T08:25:44.968Z,48.36
2017-07-31T08:26:25.540Z,47.66
2017-07-31T08:27:06.164Z,47.97
2017-07-31T08:27:46.809Z,48.93
2017-07-31T08:28:27.417Z,47.66
2017-07-31T08:29:08.025Z,48.36
2017-07-31T08:29:48.616Z,46.69
2017-07-31T08:30:29.250Z,46.59
2017-07-31T08:31:09.849Z,46.59
2017-07-31T08:31:50.461Z,48.63
2017-07-31T08:32:31.075Z,48.54
2017-07-31T08:33:11.703Z,49.51
2017-07-31T08:33:52.318Z,48.63
2017-07-31T08:34:32.908Z,48.63
2017-07-31T08:35:13.496Z,49.41
2017-07-31T08:35:54.084Z,48.14
2017-07-31T08:36:34.683Z,47.75
2017-07-31T08:37:15.264Z,48.34
2017-07-31T08:37:55.909Z,49.32
2017-07-31T08:38:36.574Z,49.32
2017-07-31T08:39:17.167Z,49.71
2017-07-31T08:39:57.780Z,48.14
2017-07-31T08:40:38.363Z,49.22
2017-07-31T08:41:18.953Z,48.63
2017-07-31T08:41:59.549Z,49.12
2017-07-31T08:42:40.129Z,49.51
2017-07-31T08:43:20.748Z,48.83
2017-07-31T08:44:01.361Z,49.71
2017-07-31T08:44:41.930Z,49.8
2017-07-31T08:45:22.526Z,50.58